sensor_id;sensor_type;location;lat;lon;timestamp;pressure;altitude;pressure_sealevel;temperature;humidity
77017;BME280;65949;53.132;17.930;2023-07-13T00:01:49;100638.25;;;17.92;77.30
77017;BME280;65949;53.132;17.930;2023-07-13T00:04:17;100637.13;;;17.89;77.23
77017;BME280;65949;53.132;17.930;2023-07-13T00:06:45;100638.23;;;17.87;77.38
77017;BME280;65949;53.132;17.930;2023-07-13T00:09:13;100639.75;;;17.84;77.24
77017;BME280;65949;53.132;17.930;2023-07-13T00:11:40;100641.10;;;17.81;77.21
77017;BME280;65949;53.132;17.930;2023-07-13T00:14:08;100645.38;;;17.77;77.15
77017;BME280;65949;53.132;17.930;2023-07-13T00:16:37;100644.75;;;17.72;77.35
77017;BME280;65949;53.132;17.930;2023-07-13T00:19:05;100648.08;;;17.69;77.43
77017;BME280;65949;53.132;17.930;2023-07-13T00:21:32;100651.35;;;17.67;77.58
77017;BME280;65949;53.132;17.930;2023-07-13T00:23:59;100654.06;;;17.66;77.48
77017;BME280;65949;53.132;17.930;2023-07-13T00:26:27;100653.48;;;17.61;77.45
77017;BME280;65949;53.132;17.930;2023-07-13T00:28:54;100655.97;;;17.59;77.33
77017;BME280;65949;53.132;17.930;2023-07-13T00:31:20;100658.04;;;17.54;77.42
77017;BME280;65949;53.132;17.930;2023-07-13T00:33:47;100659.48;;;17.50;77.43
77017;BME280;65949;53.132;17.930;2023-07-13T00:36:14;100665.27;;;17.45;77.46
77017;BME280;65949;53.132;17.930;2023-07-13T00:38:40;100669.89;;;17.41;77.58
77017;BME280;65949;53.132;17.930;2023-07-13T00:41:08;100671.55;;;17.37;77.70
77017;BME280;65949;53.132;17.930;2023-07-13T00:43:36;100672.46;;;17.35;77.72
77017;BME280;65949;53.132;17.930;2023-07-13T00:46:27;100673.20;;;17.35;77.66
77017;BME280;65949;53.132;17.930;2023-07-13T00:48:57;100679.03;;;17.34;77.52
77017;BME280;65949;53.132;17.930;2023-07-13T00:51:54;100683.94;;;17.33;77.66
77017;BME280;65949;53.132;17.930;2023-07-13T00:54:36;100689.64;;;17.33;77.73
77017;BME280;65949;53.132;17.930;2023-07-13T00:57:07;100695.35;;;17.33;77.63
77017;BME280;65949;53.132;17.930;2023-07-13T00:59:35;100700.15;;;17.32;77.69
77017;BME280;65949;53.132;17.930;2023-07-13T01:02:03;100701.94;;;17.32;77.69
77017;BME280;65949;53.132;17.930;2023-07-13T01:04:30;100702.99;;;17.32;77.92
77017;BME280;65949;53.132;17.930;2023-07-13T01:06:57;100699.02;;;17.33;78.10
77017;BME280;65949;53.132;17.930;2023-07-13T01:09:26;100693.35;;;17.34;78.14
77017;BME280;65949;53.132;17.930;2023-07-13T01:11:53;100699.61;;;17.35;78.27
77017;BME280;65949;53.132;17.930;2023-07-13T01:14:20;100696.96;;;17.33;78.28
77017;BME280;65949;53.132;17.930;2023-07-13T01:16:47;100687.33;;;17.30;78.35
77017;BME280;65949;53.132;17.930;2023-07-13T01:21:49;100685.02;;;17.31;78.42
77017;BME280;65949;53.132;17.930;2023-07-13T01:24:16;100684.69;;;17.28;78.51
77017;BME280;65949;53.132;17.930;2023-07-13T01:26:43;100678.59;;;17.27;78.65
77017;BME280;65949;53.132;17.930;2023-07-13T01:29:10;100684.39;;;17.22;79.18
77017;BME280;65949;53.132;17.930;2023-07-13T01:31:38;100688.27;;;17.10;79.54
77017;BME280;65949;53.132;17.930;2023-07-13T01:34:04;100686.30;;;17.00;79.63
77017;BME280;65949;53.132;17.930;2023-07-13T01:36:31;100689.44;;;16.96;79.88
77017;BME280;65949;53.132;17.930;2023-07-13T01:38:59;100689.30;;;16.89;80.02
77017;BME280;65949;53.132;17.930;2023-07-13T01:41:25;100690.39;;;16.88;80.03
77017;BME280;65949;53.132;17.930;2023-07-13T01:43:53;100692.84;;;16.87;79.94
77017;BME280;65949;53.132;17.930;2023-07-13T01:46:20;100703.05;;;16.87;79.89
77017;BME280;65949;53.132;17.930;2023-07-13T01:48:47;100709.05;;;16.87;79.90
77017;BME280;65949;53.132;17.930;2023-07-13T01:51:13;100718.61;;;16.85;80.04
77017;BME280;65949;53.132;17.930;2023-07-13T01:53:40;100720.03;;;16.82;80.23
77017;BME280;65949;53.132;17.930;2023-07-13T01:56:07;100718.48;;;16.81;80.38
77017;BME280;65949;53.132;17.930;2023-07-13T01:58:33;100713.64;;;16.78;80.60
77017;BME280;65949;53.132;17.930;2023-07-13T02:01:00;100707.84;;;16.78;80.50
77017;BME280;65949;53.132;17.930;2023-07-13T02:03:28;100699.31;;;16.75;80.60
77017;BME280;65949;53.132;17.930;2023-07-13T02:05:54;100698.34;;;16.74;80.59
77017;BME280;65949;53.132;17.930;2023-07-13T02:08:21;100701.01;;;16.73;80.64
77017;BME280;65949;53.132;17.930;2023-07-13T02:10:48;100701.73;;;16.73;80.69
77017;BME280;65949;53.132;17.930;2023-07-13T02:13:14;100706.73;;;16.75;80.81
77017;BME280;65949;53.132;17.930;2023-07-13T02:15:41;100705.50;;;16.77;80.66
77017;BME280;65949;53.132;17.930;2023-07-13T02:18:07;100695.13;;;16.79;80.60
77017;BME280;65949;53.132;17.930;2023-07-13T02:20:34;100687.41;;;16.80;80.52
77017;BME280;65949;53.132;17.930;2023-07-13T02:23:00;100689.19;;;16.82;80.56
77017;BME280;65949;53.132;17.930;2023-07-13T02:25:27;100687.23;;;16.83;80.46
77017;BME280;65949;53.132;17.930;2023-07-13T02:27:54;100685.20;;;16.83;80.53
77017;BME280;65949;53.132;17.930;2023-07-13T02:30:20;100685.01;;;16.85;80.45
77017;BME280;65949;53.132;17.930;2023-07-13T02:32:49;100683.14;;;16.87;80.49
77017;BME280;65949;53.132;17.930;2023-07-13T02:35:19;100681.52;;;16.89;80.39
77017;BME280;65949;53.132;17.930;2023-07-13T02:37:46;100687.21;;;16.91;80.34
77017;BME280;65949;53.132;17.930;2023-07-13T02:40:12;100687.52;;;16.91;80.28
77017;BME280;65949;53.132;17.930;2023-07-13T02:42:40;100694.20;;;16.92;80.29
77017;BME280;65949;53.132;17.930;2023-07-13T02:45:08;100698.76;;;16.93;80.30
77017;BME280;65949;53.132;17.930;2023-07-13T02:47:36;100691.02;;;16.94;80.21
77017;BME280;65949;53.132;17.930;2023-07-13T02:50:03;100685.07;;;16.96;80.16
77017;BME280;65949;53.132;17.930;2023-07-13T02:52:31;100678.33;;;16.96;80.22
77017;BME280;65949;53.132;17.930;2023-07-13T02:54:58;100678.48;;;16.96;80.29
77017;BME280;65949;53.132;17.930;2023-07-13T02:57:25;100683.43;;;16.96;80.28
77017;BME280;65949;53.132;17.930;2023-07-13T02:59:51;100683.52;;;16.95;80.17
77017;BME280;65949;53.132;17.930;2023-07-13T03:02:18;100680.50;;;16.93;80.00
77017;BME280;65949;53.132;17.930;2023-07-13T03:04:45;100685.09;;;16.92;80.00
77017;BME280;65949;53.132;17.930;2023-07-13T03:07:12;100689.84;;;16.92;80.05
77017;BME280;65949;53.132;17.930;2023-07-13T03:09:40;100687.09;;;16.92;79.92
77017;BME280;65949;53.132;17.930;2023-07-13T03:12:08;100683.83;;;16.90;79.83
77017;BME280;65949;53.132;17.930;2023-07-13T03:14:34;100679.64;;;16.89;79.88
77017;BME280;65949;53.132;17.930;2023-07-13T03:17:01;100682.05;;;16.89;79.78
77017;BME280;65949;53.132;17.930;2023-07-13T03:19:30;100679.89;;;16.89;79.53
77017;BME280;65949;53.132;17.930;2023-07-13T03:21:57;100683.02;;;16.90;79.67
77017;BME280;65949;53.132;17.930;2023-07-13T03:24:24;100687.23;;;16.93;79.73
77017;BME280;65949;53.132;17.930;2023-07-13T03:26:52;100694.97;;;16.94;79.69
77017;BME280;65949;53.132;17.930;2023-07-13T03:29:19;100703.29;;;16.96;79.82
77017;BME280;65949;53.132;17.930;2023-07-13T03:31:46;100701.55;;;16.99;79.69
77017;BME280;65949;53.132;17.930;2023-07-13T03:34:13;100698.45;;;17.01;79.63
77017;BME280;65949;53.132;17.930;2023-07-13T03:36:40;100700.02;;;17.05;79.62
77017;BME280;65949;53.132;17.930;2023-07-13T03:39:09;100701.44;;;17.10;79.44
77017;BME280;65949;53.132;17.930;2023-07-13T03:41:46;100706.19;;;17.13;79.31
77017;BME280;65949;53.132;17.930;2023-07-13T03:44:15;100706.71;;;17.09;79.34
77017;BME280;65949;53.132;17.930;2023-07-13T03:46:43;100707.81;;;17.04;79.45
77017;BME280;65949;53.132;17.930;2023-07-13T03:49:11;100707.66;;;16.96;79.55
77017;BME280;65949;53.132;17.930;2023-07-13T03:51:38;100708.72;;;16.90;79.62
77017;BME280;65949;53.132;17.930;2023-07-13T03:54:05;100712.34;;;16.88;79.69
77017;BME280;65949;53.132;17.930;2023-07-13T03:56:32;100717.00;;;16.90;79.77
77017;BME280;65949;53.132;17.930;2023-07-13T03:59:00;100717.44;;;16.95;79.67
77017;BME280;65949;53.132;17.930;2023-07-13T04:01:27;100719.30;;;16.99;79.51
77017;BME280;65949;53.132;17.930;2023-07-13T04:03:54;100724.18;;;17.03;79.38
77017;BME280;65949;53.132;17.930;2023-07-13T04:06:26;100729.00;;;17.14;79.30
77017;BME280;65949;53.132;17.930;2023-07-13T04:08:55;100728.70;;;17.52;78.64
77017;BME280;65949;53.132;17.930;2023-07-13T04:11:24;100730.92;;;18.47;77.03
77017;BME280;65949;53.132;17.930;2023-07-13T04:13:52;100735.64;;;19.00;75.95
77017;BME280;65949;53.132;17.930;2023-07-13T04:16:19;100735.65;;;19.96;73.79
77017;BME280;65949;53.132;17.930;2023-07-13T04:18:47;100727.79;;;21.02;71.12
77017;BME280;65949;53.132;17.930;2023-07-13T04:21:15;100710.57;;;21.86;69.42
77017;BME280;65949;53.132;17.930;2023-07-13T04:23:42;100707.19;;;21.74;69.15
77017;BME280;65949;53.132;17.930;2023-07-13T04:26:09;100713.85;;;22.59;66.86
77017;BME280;65949;53.132;17.930;2023-07-13T04:28:35;100718.80;;;23.57;64.64
77017;BME280;65949;53.132;17.930;2023-07-13T04:31:02;100729.67;;;23.76;64.16
77017;BME280;65949;53.132;17.930;2023-07-13T04:33:29;100733.39;;;24.33;62.78
77017;BME280;65949;53.132;17.930;2023-07-13T04:35:56;100731.20;;;24.62;61.30
77017;BME280;65949;53.132;17.930;2023-07-13T04:38:25;100731.75;;;24.08;61.60
77017;BME280;65949;53.132;17.930;2023-07-13T04:40:58;100731.98;;;24.45;59.59
77017;BME280;65949;53.132;17.930;2023-07-13T04:43:26;100732.59;;;24.81;58.12
77017;BME280;65949;53.132;17.930;2023-07-13T04:45:53;100745.34;;;25.34;57.01
77017;BME280;65949;53.132;17.930;2023-07-13T04:48:20;100753.04;;;25.82;56.48
77017;BME280;65949;53.132;17.930;2023-07-13T04:50:48;100756.98;;;26.51;54.87
77017;BME280;65949;53.132;17.930;2023-07-13T04:53:20;100760.92;;;26.26;53.80
77017;BME280;65949;53.132;17.930;2023-07-13T04:55:46;100768.23;;;26.09;53.35
77017;BME280;65949;53.132;17.930;2023-07-13T04:58:13;100769.27;;;25.36;54.08
77017;BME280;65949;53.132;17.930;2023-07-13T05:00:40;100770.20;;;25.40;54.28
77017;BME280;65949;53.132;17.930;2023-07-13T05:03:06;100777.52;;;25.75;53.12
77017;BME280;65949;53.132;17.930;2023-07-13T05:05:33;100777.63;;;26.37;52.39
77017;BME280;65949;53.132;17.930;2023-07-13T05:08:00;100777.25;;;26.25;52.34
77017;BME280;65949;53.132;17.930;2023-07-13T05:10:27;100775.52;;;25.33;53.07
77017;BME280;65949;53.132;17.930;2023-07-13T05:12:54;100774.85;;;25.08;52.81
77017;BME280;65949;53.132;17.930;2023-07-13T05:15:22;100773.02;;;25.36;52.62
77017;BME280;65949;53.132;17.930;2023-07-13T05:17:49;100773.38;;;25.81;51.88
77017;BME280;65949;53.132;17.930;2023-07-13T05:20:18;100771.79;;;26.30;51.32
77017;BME280;65949;53.132;17.930;2023-07-13T05:22:45;100767.25;;;26.66;50.14
77017;BME280;65949;53.132;17.930;2023-07-13T05:25:14;100766.92;;;26.93;50.06
77017;BME280;65949;53.132;17.930;2023-07-13T05:27:41;100768.29;;;27.41;48.96
77017;BME280;65949;53.132;17.930;2023-07-13T05:30:08;100777.02;;;27.71;48.04
77017;BME280;65949;53.132;17.930;2023-07-13T05:32:37;100780.59;;;27.62;47.48
77017;BME280;65949;53.132;17.930;2023-07-13T05:35:05;100785.67;;;27.04;48.59
77017;BME280;65949;53.132;17.930;2023-07-13T05:37:32;100787.11;;;26.67;47.74
77017;BME280;65949;53.132;17.930;2023-07-13T05:39:58;100789.27;;;25.93;49.11
77017;BME280;65949;53.132;17.930;2023-07-13T05:42:25;100791.21;;;25.33;49.92
77017;BME280;65949;53.132;17.930;2023-07-13T05:44:52;100785.83;;;24.77;50.95
77017;BME280;65949;53.132;17.930;2023-07-13T05:47:18;100779.98;;;24.82;51.26
77017;BME280;65949;53.132;17.930;2023-07-13T05:49:45;100774.30;;;25.81;50.10
77017;BME280;65949;53.132;17.930;2023-07-13T05:52:11;100771.83;;;26.48;47.55
77017;BME280;65949;53.132;17.930;2023-07-13T05:54:38;100776.80;;;26.58;47.32
77017;BME280;65949;53.132;17.930;2023-07-13T05:57:05;100783.95;;;26.70;46.32
77017;BME280;65949;53.132;17.930;2023-07-13T05:59:32;100785.13;;;25.74;47.38
77017;BME280;65949;53.132;17.930;2023-07-13T06:01:58;100789.36;;;25.16;48.88
77017;BME280;65949;53.132;17.930;2023-07-13T06:04:25;100787.58;;;25.43;48.79
77017;BME280;65949;53.132;17.930;2023-07-13T06:06:52;100786.26;;;25.94;47.78
77017;BME280;65949;53.132;17.930;2023-07-13T06:09:19;100782.82;;;26.13;47.81
77017;BME280;65949;53.132;17.930;2023-07-13T06:11:45;100776.55;;;26.53;46.62
77017;BME280;65949;53.132;17.930;2023-07-13T06:14:12;100775.30;;;26.48;46.76
77017;BME280;65949;53.132;17.930;2023-07-13T06:16:40;100773.82;;;26.37;46.43
77017;BME280;65949;53.132;17.930;2023-07-13T06:19:07;100777.33;;;26.33;46.68
77017;BME280;65949;53.132;17.930;2023-07-13T06:21:34;100783.20;;;26.16;47.11
77017;BME280;65949;53.132;17.930;2023-07-13T06:24:00;100783.05;;;26.05;47.21
77017;BME280;65949;53.132;17.930;2023-07-13T06:26:27;100790.06;;;25.83;47.59
77017;BME280;65949;53.132;17.930;2023-07-13T06:28:54;100793.98;;;25.59;48.36
77017;BME280;65949;53.132;17.930;2023-07-13T06:31:21;100790.12;;;25.55;48.75
77017;BME280;65949;53.132;17.930;2023-07-13T06:33:47;100788.41;;;25.43;49.56
77017;BME280;65949;53.132;17.930;2023-07-13T06:36:14;100789.61;;;25.26;49.82
77017;BME280;65949;53.132;17.930;2023-07-13T06:38:41;100793.86;;;24.88;50.08
77017;BME280;65949;53.132;17.930;2023-07-13T06:41:08;100791.66;;;24.64;50.27
77017;BME280;65949;53.132;17.930;2023-07-13T06:43:34;100789.20;;;24.42;50.19
77017;BME280;65949;53.132;17.930;2023-07-13T06:46:01;100792.23;;;24.08;51.37
77017;BME280;65949;53.132;17.930;2023-07-13T06:48:28;100797.37;;;24.01;51.95
77017;BME280;65949;53.132;17.930;2023-07-13T06:50:55;100801.02;;;23.96;52.29
77017;BME280;65949;53.132;17.930;2023-07-13T06:53:22;100799.80;;;23.94;52.60
77017;BME280;65949;53.132;17.930;2023-07-13T06:55:49;100801.84;;;24.00;52.53
77017;BME280;65949;53.132;17.930;2023-07-13T06:58:17;100806.48;;;24.11;51.93
77017;BME280;65949;53.132;17.930;2023-07-13T07:00:45;100805.46;;;24.16;52.28
77017;BME280;65949;53.132;17.930;2023-07-13T07:03:12;100805.52;;;24.20;52.18
77017;BME280;65949;53.132;17.930;2023-07-13T07:05:39;100800.52;;;24.27;52.01
77017;BME280;65949;53.132;17.930;2023-07-13T07:08:06;100801.59;;;24.24;50.15
77017;BME280;65949;53.132;17.930;2023-07-13T07:10:33;100808.76;;;24.19;50.80
77017;BME280;65949;53.132;17.930;2023-07-13T07:13:01;100814.99;;;24.22;51.43
77017;BME280;65949;53.132;17.930;2023-07-13T07:15:27;100817.30;;;24.26;51.59
77017;BME280;65949;53.132;17.930;2023-07-13T07:17:54;100817.46;;;24.29;51.41
77017;BME280;65949;53.132;17.930;2023-07-13T07:20:21;100815.86;;;24.34;51.61
77017;BME280;65949;53.132;17.930;2023-07-13T07:22:48;100812.05;;;24.39;51.29
77017;BME280;65949;53.132;17.930;2023-07-13T07:25:15;100813.81;;;24.48;51.07
77017;BME280;65949;53.132;17.930;2023-07-13T07:27:42;100814.93;;;24.56;50.99
77017;BME280;65949;53.132;17.930;2023-07-13T07:30:09;100814.05;;;24.70;50.56
77017;BME280;65949;53.132;17.930;2023-07-13T07:32:36;100809.98;;;24.87;50.24
77017;BME280;65949;53.132;17.930;2023-07-13T07:35:02;100813.77;;;24.98;50.28
77017;BME280;65949;53.132;17.930;2023-07-13T07:37:29;100807.71;;;25.15;50.47
77017;BME280;65949;53.132;17.930;2023-07-13T07:39:56;100806.79;;;25.43;49.96
77017;BME280;65949;53.132;17.930;2023-07-13T07:42:22;100808.29;;;25.65;49.35
77017;BME280;65949;53.132;17.930;2023-07-13T07:44:49;100807.39;;;25.69;48.34
77017;BME280;65949;53.132;17.930;2023-07-13T07:47:16;100804.13;;;25.70;48.64
77017;BME280;65949;53.132;17.930;2023-07-13T07:49:42;100808.81;;;25.71;48.26
77017;BME280;65949;53.132;17.930;2023-07-13T07:52:09;100813.38;;;25.61;47.74
77017;BME280;65949;53.132;17.930;2023-07-13T07:54:36;100815.67;;;25.38;47.83
77017;BME280;65949;53.132;17.930;2023-07-13T07:57:02;100817.62;;;25.15;48.52
77017;BME280;65949;53.132;17.930;2023-07-13T07:59:29;100810.75;;;25.11;48.33
77017;BME280;65949;53.132;17.930;2023-07-13T08:01:56;100815.16;;;25.18;48.69
77017;BME280;65949;53.132;17.930;2023-07-13T08:04:22;100818.48;;;25.23;48.68
77017;BME280;65949;53.132;17.930;2023-07-13T08:06:49;100819.63;;;25.26;48.45
77017;BME280;65949;53.132;17.930;2023-07-13T08:09:15;100816.75;;;25.21;48.49
77017;BME280;65949;53.132;17.930;2023-07-13T08:11:42;100817.42;;;25.10;48.57
77017;BME280;65949;53.132;17.930;2023-07-13T08:14:08;100811.20;;;25.12;48.96
77017;BME280;65949;53.132;17.930;2023-07-13T08:16:36;100811.07;;;25.25;48.20
77017;BME280;65949;53.132;17.930;2023-07-13T08:19:02;100811.56;;;25.20;47.44
77017;BME280;65949;53.132;17.930;2023-07-13T08:21:30;100814.52;;;25.16;47.00
77017;BME280;65949;53.132;17.930;2023-07-13T08:23:57;100815.21;;;25.26;46.74
77017;BME280;65949;53.132;17.930;2023-07-13T08:26:23;100808.38;;;25.29;46.89
77017;BME280;65949;53.132;17.930;2023-07-13T08:28:50;100804.89;;;25.40;46.86
77017;BME280;65949;53.132;17.930;2023-07-13T08:31:16;100800.54;;;25.50;45.35
77017;BME280;65949;53.132;17.930;2023-07-13T08:33:43;100795.73;;;25.70;44.72
77017;BME280;65949;53.132;17.930;2023-07-13T08:36:10;100792.14;;;25.95;43.68
77017;BME280;65949;53.132;17.930;2023-07-13T08:38:36;100790.83;;;26.20;41.44
77017;BME280;65949;53.132;17.930;2023-07-13T08:41:12;100787.22;;;26.23;39.63
77017;BME280;65949;53.132;17.930;2023-07-13T08:43:39;100783.84;;;26.18;40.95
77017;BME280;65949;53.132;17.930;2023-07-13T08:46:29;100790.96;;;26.12;41.48
77017;BME280;65949;53.132;17.930;2023-07-13T08:49:04;100790.67;;;25.97;42.57
77017;BME280;65949;53.132;17.930;2023-07-13T08:51:41;100795.45;;;25.82;43.35
77017;BME280;65949;53.132;17.930;2023-07-13T08:54:39;100794.15;;;25.60;44.07
77017;BME280;65949;53.132;17.930;2023-07-13T08:57:18;100802.91;;;25.40;45.09
77017;BME280;65949;53.132;17.930;2023-07-13T08:59:46;100806.78;;;25.26;45.48
77017;BME280;65949;53.132;17.930;2023-07-13T09:02:28;100808.41;;;25.19;45.58
77017;BME280;65949;53.132;17.930;2023-07-13T09:05:03;100804.64;;;25.08;45.64
77017;BME280;65949;53.132;17.930;2023-07-13T09:07:43;100807.02;;;25.06;45.41
77017;BME280;65949;53.132;17.930;2023-07-13T09:10:17;100803.89;;;25.12;45.09
77017;BME280;65949;53.132;17.930;2023-07-13T09:15:32;100797.73;;;25.15;45.56
77017;BME280;65949;53.132;17.930;2023-07-13T09:20:38;100794.55;;;25.13;44.48
77017;BME280;65949;53.132;17.930;2023-07-13T09:23:14;100800.48;;;25.00;44.41
77017;BME280;65949;53.132;17.930;2023-07-13T09:25:42;100807.36;;;25.01;44.68
77017;BME280;65949;53.132;17.930;2023-07-13T09:28:18;100800.67;;;25.07;44.42
77017;BME280;65949;53.132;17.930;2023-07-13T09:31:00;100798.02;;;25.18;44.01
77017;BME280;65949;53.132;17.930;2023-07-13T09:33:28;100798.11;;;25.31;43.25
77017;BME280;65949;53.132;17.930;2023-07-13T09:35:57;100794.61;;;25.44;42.65
77017;BME280;65949;53.132;17.930;2023-07-13T09:38:27;100794.00;;;25.47;42.17
77017;BME280;65949;53.132;17.930;2023-07-13T09:44:12;100795.86;;;25.90;42.51
77017;BME280;65949;53.132;17.930;2023-07-13T09:47:00;100797.60;;;26.19;41.70
77017;BME280;65949;53.132;17.930;2023-07-13T09:49:31;100792.45;;;26.32;41.19
77017;BME280;65949;53.132;17.930;2023-07-13T09:52:03;100785.98;;;26.33;41.29
77017;BME280;65949;53.132;17.930;2023-07-13T09:54:33;100785.48;;;26.35;40.75
77017;BME280;65949;53.132;17.930;2023-07-13T09:57:02;100780.08;;;26.37;40.52
77017;BME280;65949;53.132;17.930;2023-07-13T09:59:41;100777.60;;;26.43;40.27
77017;BME280;65949;53.132;17.930;2023-07-13T10:02:35;100775.58;;;26.54;40.94
77017;BME280;65949;53.132;17.930;2023-07-13T10:05:05;100777.46;;;26.48;38.64
77017;BME280;65949;53.132;17.930;2023-07-13T10:07:38;100778.18;;;26.21;37.93
77017;BME280;65949;53.132;17.930;2023-07-13T10:10:15;100782.50;;;26.03;39.12
77017;BME280;65949;53.132;17.930;2023-07-13T10:12:44;100785.58;;;26.02;39.55
77017;BME280;65949;53.132;17.930;2023-07-13T10:15:24;100783.88;;;26.17;39.18
77017;BME280;65949;53.132;17.930;2023-07-13T10:17:53;100778.42;;;26.22;37.53
77017;BME280;65949;53.132;17.930;2023-07-13T10:20:21;100775.00;;;26.23;37.56
77017;BME280;65949;53.132;17.930;2023-07-13T10:22:58;100776.94;;;26.28;37.41
77017;BME280;65949;53.132;17.930;2023-07-13T10:25:31;100778.14;;;26.35;37.70
77017;BME280;65949;53.132;17.930;2023-07-13T10:28:03;100779.42;;;26.39;37.67
77017;BME280;65949;53.132;17.930;2023-07-13T10:30:35;100775.30;;;26.55;36.79
77017;BME280;65949;53.132;17.930;2023-07-13T10:33:10;100777.10;;;26.84;36.96
77017;BME280;65949;53.132;17.930;2023-07-13T10:35:42;100773.77;;;27.23;36.53
77017;BME280;65949;53.132;17.930;2023-07-13T10:38:14;100773.21;;;27.53;36.21
77017;BME280;65949;53.132;17.930;2023-07-13T10:41:05;100776.91;;;27.73;35.98
77017;BME280;65949;53.132;17.930;2023-07-13T10:43:36;100776.16;;;27.56;35.38
77017;BME280;65949;53.132;17.930;2023-07-13T10:46:07;100775.33;;;27.40;35.61
77017;BME280;65949;53.132;17.930;2023-07-13T10:48:35;100770.70;;;27.26;35.30
77017;BME280;65949;53.132;17.930;2023-07-13T10:51:04;100778.89;;;27.04;35.89
77017;BME280;65949;53.132;17.930;2023-07-13T10:53:35;100771.73;;;26.82;35.79
77017;BME280;65949;53.132;17.930;2023-07-13T10:56:05;100771.92;;;26.72;36.50
77017;BME280;65949;53.132;17.930;2023-07-13T10:58:40;100772.48;;;26.63;37.18
77017;BME280;65949;53.132;17.930;2023-07-13T11:01:10;100771.98;;;26.54;37.41
77017;BME280;65949;53.132;17.930;2023-07-13T11:03:50;100770.09;;;26.50;37.80
77017;BME280;65949;53.132;17.930;2023-07-13T11:14:01;100770.41;;;26.81;38.23
77017;BME280;65949;53.132;17.930;2023-07-13T11:16:36;100774.00;;;26.95;38.24
77017;BME280;65949;53.132;17.930;2023-07-13T11:21:32;100774.37;;;26.80;38.29
77017;BME280;65949;53.132;17.930;2023-07-13T11:24:16;100775.83;;;26.67;38.35
77017;BME280;65949;53.132;17.930;2023-07-13T11:26:51;100773.63;;;26.44;38.15
77017;BME280;65949;53.132;17.930;2023-07-13T11:32:00;100778.00;;;25.97;38.27
77017;BME280;65949;53.132;17.930;2023-07-13T11:34:31;100776.95;;;25.84;39.11
77017;BME280;65949;53.132;17.930;2023-07-13T11:37:01;100784.30;;;25.86;39.14
77017;BME280;65949;53.132;17.930;2023-07-13T11:39:37;100783.16;;;25.85;39.84
77017;BME280;65949;53.132;17.930;2023-07-13T11:42:13;100783.86;;;25.82;40.60
77017;BME280;65949;53.132;17.930;2023-07-13T11:44:49;100784.85;;;25.83;40.81
77017;BME280;65949;53.132;17.930;2023-07-13T11:47:21;100785.68;;;25.85;40.99
77017;BME280;65949;53.132;17.930;2023-07-13T11:49:54;100785.20;;;25.99;41.08
77017;BME280;65949;53.132;17.930;2023-07-13T11:52:33;100783.17;;;26.31;40.96
77017;BME280;65949;53.132;17.930;2023-07-13T11:55:02;100777.36;;;26.68;40.27
77017;BME280;65949;53.132;17.930;2023-07-13T11:57:31;100772.75;;;26.89;39.77
77017;BME280;65949;53.132;17.930;2023-07-13T12:00:14;100774.50;;;26.97;39.13
77017;BME280;65949;53.132;17.930;2023-07-13T12:02:45;100779.64;;;26.94;39.01
77017;BME280;65949;53.132;17.930;2023-07-13T12:05:14;100773.84;;;27.00;39.09
77017;BME280;65949;53.132;17.930;2023-07-13T12:07:41;100772.78;;;27.15;38.74
77017;BME280;65949;53.132;17.930;2023-07-13T12:12:36;100771.00;;;27.54;37.67
77017;BME280;65949;53.132;17.930;2023-07-13T12:15:07;100770.14;;;27.70;36.92
77017;BME280;65949;53.132;17.930;2023-07-13T12:17:34;100767.82;;;27.91;36.63
77017;BME280;65949;53.132;17.930;2023-07-13T12:20:17;100768.51;;;28.03;35.40
77017;BME280;65949;53.132;17.930;2023-07-13T12:22:47;100770.60;;;28.04;34.60
77017;BME280;65949;53.132;17.930;2023-07-13T12:25:15;100773.13;;;27.81;34.92
77017;BME280;65949;53.132;17.930;2023-07-13T12:27:42;100770.48;;;27.60;35.94
77017;BME280;65949;53.132;17.930;2023-07-13T12:30:30;100768.02;;;27.48;36.32
77017;BME280;65949;53.132;17.930;2023-07-13T12:33:05;100768.72;;;27.33;36.62
77017;BME280;65949;53.132;17.930;2023-07-13T12:35:40;100765.11;;;27.18;36.26
77017;BME280;65949;53.132;17.930;2023-07-13T12:38:11;100759.35;;;26.97;36.90
77017;BME280;65949;53.132;17.930;2023-07-13T12:40:39;100767.17;;;26.80;37.35
77017;BME280;65949;53.132;17.930;2023-07-13T12:43:13;100765.52;;;26.63;37.73
77017;BME280;65949;53.132;17.930;2023-07-13T12:48:22;100764.71;;;26.40;38.54
77017;BME280;65949;53.132;17.930;2023-07-13T12:50:50;100769.82;;;26.32;38.56
77017;BME280;65949;53.132;17.930;2023-07-13T12:53:20;100771.27;;;26.27;38.13
77017;BME280;65949;53.132;17.930;2023-07-13T12:55:49;100771.98;;;26.21;38.27
77017;BME280;65949;53.132;17.930;2023-07-13T12:58:26;100768.98;;;26.24;38.48
77017;BME280;65949;53.132;17.930;2023-07-13T13:00:55;100770.88;;;26.34;38.62
77017;BME280;65949;53.132;17.930;2023-07-13T13:03:30;100778.19;;;26.42;38.36
77017;BME280;65949;53.132;17.930;2023-07-13T13:06:04;100779.70;;;26.36;38.59
77017;BME280;65949;53.132;17.930;2023-07-13T13:08:33;100771.94;;;26.30;38.45
77017;BME280;65949;53.132;17.930;2023-07-13T13:11:01;100769.25;;;26.30;38.83
77017;BME280;65949;53.132;17.930;2023-07-13T13:13:28;100762.11;;;26.32;38.83
77017;BME280;65949;53.132;17.930;2023-07-13T13:15:55;100757.77;;;26.36;38.65
77017;BME280;65949;53.132;17.930;2023-07-13T13:18:23;100761.16;;;26.34;38.56
77017;BME280;65949;53.132;17.930;2023-07-13T13:20:51;100771.27;;;26.40;38.54